Waiwera, New Zealand
Current Conditions -  °F | °C
As of 12:00 AM on Friday 28 Nov 2014 (Local Time) from NZWN Reporting Station
Few Clouds Few Clouds  
Wind Chill: 57°   Ceiling: Unl
Heat Index: 57°   Visibility: 6mi
Dew Point: 50°   Wind: 18mph
Humidity: 77%   Direction: 330°NNW
Pressure: 29.62"   Gusts: NA
Location:  41.55°S, 175.46°E
Report Text: NZWN 271200Z AUTO 33016KT 9999 FEW023/// 14/10 Q1003 NOSIG
Loading
Personal Weather Stations






























Interactive Weather Map New forecast layout! Learn more

10-Day Weather Forecast

Advertisements
Track Severe Weather on mobile